sensor_id;sensor_type;location;lat;lon;timestamp;P1;durP1;ratioP1;P2;durP2;ratioP2
10605;SDS011;5350;42.698;23.148;2023-06-10T00:00:47;9.77;;;6.32;;
10605;SDS011;5350;42.698;23.148;2023-06-10T00:03:13;8.73;;;6.68;;
10605;SDS011;5350;42.698;23.148;2023-06-10T00:05:41;8.40;;;6.65;;
10605;SDS011;5350;42.698;23.148;2023-06-10T00:08:08;8.63;;;6.97;;
10605;SDS011;5350;42.698;23.148;2023-06-10T00:10:37;10.50;;;6.15;;
10605;SDS011;5350;42.698;23.148;2023-06-10T00:13:06;9.18;;;6.13;;
10605;SDS011;5350;42.698;23.148;2023-06-10T00:15:34;10.38;;;6.72;;
10605;SDS011;5350;42.698;23.148;2023-06-10T00:18:01;7.75;;;5.78;;
10605;SDS011;5350;42.698;23.148;2023-06-10T00:20:28;8.85;;;6.32;;
10605;SDS011;5350;42.698;23.148;2023-06-10T00:22:55;8.43;;;6.93;;
10605;SDS011;5350;42.698;23.148;2023-06-10T00:25:24;7.68;;;6.97;;
10605;SDS011;5350;42.698;23.148;2023-06-10T00:27:53;9.23;;;7.00;;
10605;SDS011;5350;42.698;23.148;2023-06-10T00:30:20;9.20;;;6.70;;
10605;SDS011;5350;42.698;23.148;2023-06-10T00:32:47;8.63;;;6.75;;
10605;SDS011;5350;42.698;23.148;2023-06-10T00:35:13;7.00;;;6.35;;
10605;SDS011;5350;42.698;23.148;2023-06-10T00:37:40;8.98;;;6.68;;
10605;SDS011;5350;42.698;23.148;2023-06-10T00:40:07;7.57;;;6.80;;
10605;SDS011;5350;42.698;23.148;2023-06-10T00:42:35;14.20;;;7.65;;
10605;SDS011;5350;42.698;23.148;2023-06-10T00:45:03;6.95;;;6.25;;
10605;SDS011;5350;42.698;23.148;2023-06-10T00:47:30;8.18;;;6.10;;
10605;SDS011;5350;42.698;23.148;2023-06-10T00:49:57;7.13;;;6.47;;
10605;SDS011;5350;42.698;23.148;2023-06-10T00:52:25;8.30;;;6.68;;
10605;SDS011;5350;42.698;23.148;2023-06-10T00:54:54;9.80;;;6.57;;
10605;SDS011;5350;42.698;23.148;2023-06-10T00:57:21;6.95;;;6.25;;
10605;SDS011;5350;42.698;23.148;2023-06-10T00:59:48;9.02;;;6.28;;
10605;SDS011;5350;42.698;23.148;2023-06-10T01:02:17;8.40;;;6.43;;
10605;SDS011;5350;42.698;23.148;2023-06-10T01:04:44;7.57;;;6.15;;
10605;SDS011;5350;42.698;23.148;2023-06-10T01:07:14;7.30;;;6.53;;
10605;SDS011;5350;42.698;23.148;2023-06-10T01:09:52;7.68;;;6.47;;
10605;SDS011;5350;42.698;23.148;2023-06-10T01:12:25;8.32;;;6.53;;
10605;SDS011;5350;42.698;23.148;2023-06-10T01:14:57;8.77;;;6.50;;
10605;SDS011;5350;42.698;23.148;2023-06-10T01:17:27;9.73;;;6.20;;
10605;SDS011;5350;42.698;23.148;2023-06-10T01:19:56;10.38;;;6.13;;
10605;SDS011;5350;42.698;23.148;2023-06-10T01:22:24;8.27;;;6.18;;
10605;SDS011;5350;42.698;23.148;2023-06-10T01:24:53;8.68;;;6.40;;
10605;SDS011;5350;42.698;23.148;2023-06-10T01:27:23;7.95;;;6.53;;
10605;SDS011;5350;42.698;23.148;2023-06-10T01:29:54;7.38;;;6.07;;
10605;SDS011;5350;42.698;23.148;2023-06-10T01:32:29;8.05;;;6.57;;
10605;SDS011;5350;42.698;23.148;2023-06-10T01:35:01;8.13;;;6.55;;
10605;SDS011;5350;42.698;23.148;2023-06-10T01:37:30;7.45;;;6.10;;
10605;SDS011;5350;42.698;23.148;2023-06-10T01:39:58;8.15;;;6.38;;
10605;SDS011;5350;42.698;23.148;2023-06-10T01:42:26;7.15;;;6.40;;
10605;SDS011;5350;42.698;23.148;2023-06-10T01:44:54;9.35;;;6.80;;
10605;SDS011;5350;42.698;23.148;2023-06-10T01:47:21;7.57;;;6.30;;
10605;SDS011;5350;42.698;23.148;2023-06-10T01:49:48;8.40;;;6.70;;
10605;SDS011;5350;42.698;23.148;2023-06-10T01:52:15;8.82;;;6.38;;
10605;SDS011;5350;42.698;23.148;2023-06-10T01:54:43;7.60;;;6.50;;
10605;SDS011;5350;42.698;23.148;2023-06-10T01:57:09;7.70;;;6.25;;
10605;SDS011;5350;42.698;23.148;2023-06-10T01:59:36;7.28;;;6.57;;
10605;SDS011;5350;42.698;23.148;2023-06-10T02:02:03;6.80;;;5.80;;
10605;SDS011;5350;42.698;23.148;2023-06-10T02:04:30;7.10;;;6.40;;
10605;SDS011;5350;42.698;23.148;2023-06-10T02:06:57;8.13;;;6.60;;
10605;SDS011;5350;42.698;23.148;2023-06-10T02:09:23;9.95;;;6.18;;
10605;SDS011;5350;42.698;23.148;2023-06-10T02:11:51;7.82;;;6.30;;
10605;SDS011;5350;42.698;23.148;2023-06-10T02:14:18;7.63;;;6.15;;
10605;SDS011;5350;42.698;23.148;2023-06-10T02:16:45;6.45;;;5.78;;
10605;SDS011;5350;42.698;23.148;2023-06-10T02:19:12;6.45;;;5.80;;
10605;SDS011;5350;42.698;23.148;2023-06-10T02:21:39;9.23;;;6.00;;
10605;SDS011;5350;42.698;23.148;2023-06-10T02:24:06;9.13;;;5.82;;
10605;SDS011;5350;42.698;23.148;2023-06-10T02:26:33;8.77;;;6.18;;
10605;SDS011;5350;42.698;23.148;2023-06-10T02:29:01;8.20;;;5.82;;
10605;SDS011;5350;42.698;23.148;2023-06-10T02:31:28;6.47;;;5.88;;
10605;SDS011;5350;42.698;23.148;2023-06-10T02:33:55;7.03;;;6.35;;
10605;SDS011;5350;42.698;23.148;2023-06-10T02:36:23;7.07;;;6.38;;
10605;SDS011;5350;42.698;23.148;2023-06-10T02:38:52;6.63;;;5.80;;
10605;SDS011;5350;42.698;23.148;2023-06-10T02:41:19;6.82;;;5.63;;
10605;SDS011;5350;42.698;23.148;2023-06-10T02:43:46;7.28;;;6.13;;
10605;SDS011;5350;42.698;23.148;2023-06-10T02:46:15;7.32;;;6.43;;
10605;SDS011;5350;42.698;23.148;2023-06-10T02:48:41;8.13;;;6.25;;
10605;SDS011;5350;42.698;23.148;2023-06-10T02:51:09;7.57;;;6.35;;
10605;SDS011;5350;42.698;23.148;2023-06-10T02:53:36;7.05;;;6.38;;
10605;SDS011;5350;42.698;23.148;2023-06-10T02:56:02;7.50;;;6.45;;
10605;SDS011;5350;42.698;23.148;2023-06-10T02:58:30;8.35;;;6.25;;
10605;SDS011;5350;42.698;23.148;2023-06-10T03:00:56;7.43;;;6.15;;
10605;SDS011;5350;42.698;23.148;2023-06-10T03:03:25;6.65;;;6.05;;
10605;SDS011;5350;42.698;23.148;2023-06-10T03:05:52;6.63;;;6.03;;
10605;SDS011;5350;42.698;23.148;2023-06-10T03:08:19;7.18;;;6.15;;
10605;SDS011;5350;42.698;23.148;2023-06-10T03:10:46;7.30;;;6.60;;
10605;SDS011;5350;42.698;23.148;2023-06-10T03:13:13;7.40;;;6.30;;
10605;SDS011;5350;42.698;23.148;2023-06-10T03:15:39;6.95;;;6.22;;
10605;SDS011;5350;42.698;23.148;2023-06-10T03:18:06;7.28;;;6.22;;
10605;SDS011;5350;42.698;23.148;2023-06-10T03:20:35;6.95;;;6.35;;
10605;SDS011;5350;42.698;23.148;2023-06-10T03:23:03;7.05;;;6.35;;
10605;SDS011;5350;42.698;23.148;2023-06-10T03:25:31;6.82;;;6.22;;
10605;SDS011;5350;42.698;23.148;2023-06-10T03:27:58;7.70;;;6.03;;
10605;SDS011;5350;42.698;23.148;2023-06-10T03:30:25;6.97;;;5.95;;
10605;SDS011;5350;42.698;23.148;2023-06-10T03:32:51;6.20;;;5.70;;
10605;SDS011;5350;42.698;23.148;2023-06-10T03:35:18;6.85;;;5.88;;
10605;SDS011;5350;42.698;23.148;2023-06-10T03:37:47;10.65;;;6.32;;
10605;SDS011;5350;42.698;23.148;2023-06-10T03:40:13;6.82;;;6.22;;
10605;SDS011;5350;42.698;23.148;2023-06-10T03:42:40;7.28;;;6.57;;
10605;SDS011;5350;42.698;23.148;2023-06-10T03:45:09;7.68;;;6.10;;
10605;SDS011;5350;42.698;23.148;2023-06-10T03:47:37;6.60;;;6.00;;
10605;SDS011;5350;42.698;23.148;2023-06-10T03:50:06;6.35;;;5.85;;
10605;SDS011;5350;42.698;23.148;2023-06-10T03:52:34;6.13;;;5.55;;
10605;SDS011;5350;42.698;23.148;2023-06-10T03:55:02;6.68;;;5.78;;
10605;SDS011;5350;42.698;23.148;2023-06-10T03:57:30;5.97;;;5.47;;
10605;SDS011;5350;42.698;23.148;2023-06-10T03:59:56;7.30;;;5.90;;
10605;SDS011;5350;42.698;23.148;2023-06-10T04:02:24;6.97;;;5.55;;
10605;SDS011;5350;42.698;23.148;2023-06-10T04:04:50;7.70;;;6.65;;
10605;SDS011;5350;42.698;23.148;2023-06-10T04:07:17;6.65;;;5.95;;
10605;SDS011;5350;42.698;23.148;2023-06-10T04:09:45;6.50;;;5.82;;
10605;SDS011;5350;42.698;23.148;2023-06-10T04:12:13;6.85;;;6.00;;
10605;SDS011;5350;42.698;23.148;2023-06-10T04:14:42;6.70;;;6.00;;
10605;SDS011;5350;42.698;23.148;2023-06-10T04:17:08;7.03;;;6.35;;
10605;SDS011;5350;42.698;23.148;2023-06-10T04:19:35;6.80;;;6.15;;
10605;SDS011;5350;42.698;23.148;2023-06-10T04:22:02;9.20;;;6.03;;
10605;SDS011;5350;42.698;23.148;2023-06-10T04:24:30;6.95;;;6.35;;
10605;SDS011;5350;42.698;23.148;2023-06-10T04:26:57;7.90;;;6.07;;
10605;SDS011;5350;42.698;23.148;2023-06-10T04:29:25;6.65;;;6.00;;
10605;SDS011;5350;42.698;23.148;2023-06-10T04:31:52;7.30;;;6.70;;
10605;SDS011;5350;42.698;23.148;2023-06-10T04:34:18;7.18;;;6.13;;
10605;SDS011;5350;42.698;23.148;2023-06-10T04:36:45;7.80;;;6.90;;
10605;SDS011;5350;42.698;23.148;2023-06-10T04:39:12;8.43;;;6.88;;
10605;SDS011;5350;42.698;23.148;2023-06-10T04:41:41;7.25;;;6.60;;
10605;SDS011;5350;42.698;23.148;2023-06-10T04:44:08;6.85;;;6.25;;
10605;SDS011;5350;42.698;23.148;2023-06-10T04:46:37;7.95;;;6.35;;
10605;SDS011;5350;42.698;23.148;2023-06-10T04:49:04;7.05;;;6.20;;
10605;SDS011;5350;42.698;23.148;2023-06-10T04:51:31;7.07;;;6.47;;
10605;SDS011;5350;42.698;23.148;2023-06-10T04:53:57;6.97;;;6.38;;
10605;SDS011;5350;42.698;23.148;2023-06-10T04:56:27;6.63;;;6.03;;
10605;SDS011;5350;42.698;23.148;2023-06-10T04:58:55;6.55;;;5.95;;
10605;SDS011;5350;42.698;23.148;2023-06-10T05:01:21;6.85;;;6.10;;
10605;SDS011;5350;42.698;23.148;2023-06-10T05:03:49;7.78;;;6.40;;
10605;SDS011;5350;42.698;23.148;2023-06-10T05:06:16;6.55;;;5.95;;
10605;SDS011;5350;42.698;23.148;2023-06-10T05:08:43;7.20;;;6.45;;
10605;SDS011;5350;42.698;23.148;2023-06-10T05:11:10;8.05;;;7.13;;
10605;SDS011;5350;42.698;23.148;2023-06-10T05:13:37;7.07;;;6.43;;
10605;SDS011;5350;42.698;23.148;2023-06-10T05:16:05;7.10;;;6.40;;
10605;SDS011;5350;42.698;23.148;2023-06-10T05:18:32;7.00;;;5.97;;
10605;SDS011;5350;42.698;23.148;2023-06-10T05:21:02;7.72;;;6.15;;
10605;SDS011;5350;42.698;23.148;2023-06-10T05:23:28;6.43;;;5.82;;
10605;SDS011;5350;42.698;23.148;2023-06-10T05:25:55;6.85;;;6.25;;
10605;SDS011;5350;42.698;23.148;2023-06-10T05:28:22;7.10;;;6.50;;
10605;SDS011;5350;42.698;23.148;2023-06-10T05:30:48;6.85;;;6.22;;
10605;SDS011;5350;42.698;23.148;2023-06-10T05:33:16;6.15;;;5.55;;
10605;SDS011;5350;42.698;23.148;2023-06-10T05:35:42;6.40;;;5.80;;
10605;SDS011;5350;42.698;23.148;2023-06-10T05:38:10;7.47;;;6.32;;
10605;SDS011;5350;42.698;23.148;2023-06-10T05:40:37;6.72;;;6.13;;
10605;SDS011;5350;42.698;23.148;2023-06-10T05:43:04;6.05;;;5.47;;
10605;SDS011;5350;42.698;23.148;2023-06-10T05:45:31;6.20;;;5.60;;
10605;SDS011;5350;42.698;23.148;2023-06-10T05:47:57;6.65;;;6.00;;
10605;SDS011;5350;42.698;23.148;2023-06-10T05:50:24;6.07;;;5.47;;
10605;SDS011;5350;42.698;23.148;2023-06-10T05:52:51;5.38;;;4.88;;
10605;SDS011;5350;42.698;23.148;2023-06-10T05:55:20;3.42;;;3.22;;
10605;SDS011;5350;42.698;23.148;2023-06-10T05:57:46;4.38;;;3.97;;
10605;SDS011;5350;42.698;23.148;2023-06-10T06:00:14;5.25;;;4.22;;
10605;SDS011;5350;42.698;23.148;2023-06-10T06:02:41;4.55;;;4.00;;
10605;SDS011;5350;42.698;23.148;2023-06-10T06:05:08;5.70;;;3.67;;
10605;SDS011;5350;42.698;23.148;2023-06-10T06:07:34;4.43;;;3.65;;
10605;SDS011;5350;42.698;23.148;2023-06-10T06:10:01;5.45;;;3.65;;
10605;SDS011;5350;42.698;23.148;2023-06-10T06:12:30;3.63;;;3.33;;
10605;SDS011;5350;42.698;23.148;2023-06-10T06:14:56;4.25;;;3.78;;
10605;SDS011;5350;42.698;23.148;2023-06-10T06:17:23;4.20;;;3.80;;
10605;SDS011;5350;42.698;23.148;2023-06-10T06:19:50;4.78;;;3.92;;
10605;SDS011;5350;42.698;23.148;2023-06-10T06:22:17;4.50;;;4.10;;
10605;SDS011;5350;42.698;23.148;2023-06-10T06:24:45;5.25;;;4.30;;
10605;SDS011;5350;42.698;23.148;2023-06-10T06:27:12;4.88;;;4.43;;
10605;SDS011;5350;42.698;23.148;2023-06-10T06:29:40;5.97;;;4.30;;
10605;SDS011;5350;42.698;23.148;2023-06-10T06:32:07;6.18;;;4.53;;
10605;SDS011;5350;42.698;23.148;2023-06-10T06:34:34;6.63;;;5.00;;
10605;SDS011;5350;42.698;23.148;2023-06-10T06:37:01;6.13;;;5.38;;
10605;SDS011;5350;42.698;23.148;2023-06-10T06:39:28;7.90;;;5.13;;
10605;SDS011;5350;42.698;23.148;2023-06-10T06:41:54;5.57;;;5.07;;
10605;SDS011;5350;42.698;23.148;2023-06-10T06:44:21;6.30;;;4.97;;
10605;SDS011;5350;42.698;23.148;2023-06-10T06:46:49;6.03;;;5.20;;
10605;SDS011;5350;42.698;23.148;2023-06-10T06:49:16;4.95;;;4.50;;
10605;SDS011;5350;42.698;23.148;2023-06-10T06:51:42;6.90;;;4.63;;
10605;SDS011;5350;42.698;23.148;2023-06-10T06:54:09;5.28;;;4.78;;
10605;SDS011;5350;42.698;23.148;2023-06-10T06:56:37;6.18;;;4.85;;
10605;SDS011;5350;42.698;23.148;2023-06-10T06:59:04;4.72;;;4.32;;
10605;SDS011;5350;42.698;23.148;2023-06-10T07:01:32;4.43;;;3.90;;
10605;SDS011;5350;42.698;23.148;2023-06-10T07:04:01;6.30;;;4.30;;
10605;SDS011;5350;42.698;23.148;2023-06-10T07:06:28;4.35;;;4.05;;
10605;SDS011;5350;42.698;23.148;2023-06-10T07:08:55;5.07;;;4.55;;
10605;SDS011;5350;42.698;23.148;2023-06-10T07:11:22;5.55;;;4.30;;
10605;SDS011;5350;42.698;23.148;2023-06-10T07:13:49;5.88;;;4.30;;
10605;SDS011;5350;42.698;23.148;2023-06-10T07:16:16;4.70;;;4.40;;
10605;SDS011;5350;42.698;23.148;2023-06-10T07:18:42;4.43;;;4.13;;
10605;SDS011;5350;42.698;23.148;2023-06-10T07:21:11;4.22;;;3.83;;
10605;SDS011;5350;42.698;23.148;2023-06-10T07:23:37;5.05;;;4.15;;
10605;SDS011;5350;42.698;23.148;2023-06-10T07:26:08;3.75;;;3.25;;
10605;SDS011;5350;42.698;23.148;2023-06-10T07:28:36;4.65;;;3.40;;
10605;SDS011;5350;42.698;23.148;2023-06-10T07:31:03;7.38;;;4.05;;
10605;SDS011;5350;42.698;23.148;2023-06-10T07:33:30;5.95;;;4.25;;
10605;SDS011;5350;42.698;23.148;2023-06-10T07:35:56;4.65;;;3.60;;
10605;SDS011;5350;42.698;23.148;2023-06-10T07:38:25;4.25;;;3.72;;
10605;SDS011;5350;42.698;23.148;2023-06-10T07:40:52;3.60;;;3.00;;
10605;SDS011;5350;42.698;23.148;2023-06-10T07:43:18;3.58;;;3.25;;
10605;SDS011;5350;42.698;23.148;2023-06-10T07:45:45;3.58;;;3.17;;
10605;SDS011;5350;42.698;23.148;2023-06-10T07:48:12;3.80;;;3.40;;
10605;SDS011;5350;42.698;23.148;2023-06-10T07:50:39;4.07;;;3.67;;
10605;SDS011;5350;42.698;23.148;2023-06-10T07:53:05;10.05;;;4.13;;
10605;SDS011;5350;42.698;23.148;2023-06-10T07:55:34;6.28;;;2.80;;
10605;SDS011;5350;42.698;23.148;2023-06-10T07:58:00;3.22;;;2.92;;
10605;SDS011;5350;42.698;23.148;2023-06-10T08:00:27;3.67;;;3.10;;
10605;SDS011;5350;42.698;23.148;2023-06-10T08:02:54;4.57;;;3.13;;
10605;SDS011;5350;42.698;23.148;2023-06-10T08:05:21;4.88;;;3.05;;
10605;SDS011;5350;42.698;23.148;2023-06-10T08:07:47;3.53;;;2.28;;
10605;SDS011;5350;42.698;23.148;2023-06-10T08:10:14;2.85;;;2.65;;
10605;SDS011;5350;42.698;23.148;2023-06-10T08:12:42;3.55;;;2.72;;
10605;SDS011;5350;42.698;23.148;2023-06-10T08:15:09;5.65;;;2.83;;
10605;SDS011;5350;42.698;23.148;2023-06-10T08:17:37;3.17;;;2.97;;
10605;SDS011;5350;42.698;23.148;2023-06-10T08:20:04;5.00;;;2.70;;
10605;SDS011;5350;42.698;23.148;2023-06-10T08:22:32;4.30;;;2.83;;
10605;SDS011;5350;42.698;23.148;2023-06-10T08:24:59;2.92;;;2.70;;
10605;SDS011;5350;42.698;23.148;2023-06-10T08:27:25;3.85;;;3.00;;
10605;SDS011;5350;42.698;23.148;2023-06-10T08:29:53;4.68;;;2.75;;
10605;SDS011;5350;42.698;23.148;2023-06-10T08:32:20;5.13;;;2.58;;
10605;SDS011;5350;42.698;23.148;2023-06-10T08:34:47;4.93;;;2.90;;
10605;SDS011;5350;42.698;23.148;2023-06-10T08:37:14;3.50;;;3.10;;
10605;SDS011;5350;42.698;23.148;2023-06-10T08:39:41;4.65;;;3.13;;
10605;SDS011;5350;42.698;23.148;2023-06-10T08:42:10;3.47;;;2.78;;
10605;SDS011;5350;42.698;23.148;2023-06-10T08:44:44;3.97;;;2.88;;
10605;SDS011;5350;42.698;23.148;2023-06-10T08:47:14;16.65;;;3.25;;
10605;SDS011;5350;42.698;23.148;2023-06-10T08:49:43;2.40;;;2.20;;
10605;SDS011;5350;42.698;23.148;2023-06-10T08:52:14;9.13;;;2.20;;
10605;SDS011;5350;42.698;23.148;2023-06-10T08:54:42;2.22;;;1.95;;
10605;SDS011;5350;42.698;23.148;2023-06-10T08:57:15;3.08;;;2.45;;
10605;SDS011;5350;42.698;23.148;2023-06-10T08:59:45;6.65;;;3.08;;
10605;SDS011;5350;42.698;23.148;2023-06-10T09:02:14;9.60;;;5.15;;
10605;SDS011;5350;42.698;23.148;2023-06-10T09:04:44;3.70;;;2.33;;
10605;SDS011;5350;42.698;23.148;2023-06-10T09:07:12;2.50;;;2.20;;
10605;SDS011;5350;42.698;23.148;2023-06-10T09:09:40;4.80;;;2.65;;
10605;SDS011;5350;42.698;23.148;2023-06-10T09:12:08;2.33;;;2.13;;
10605;SDS011;5350;42.698;23.148;2023-06-10T09:14:35;3.13;;;1.90;;
10605;SDS011;5350;42.698;23.148;2023-06-10T09:17:02;3.30;;;1.90;;
10605;SDS011;5350;42.698;23.148;2023-06-10T09:19:31;2.03;;;1.83;;
10605;SDS011;5350;42.698;23.148;2023-06-10T09:21:58;2.00;;;1.90;;
10605;SDS011;5350;42.698;23.148;2023-06-10T09:24:25;2.10;;;2.00;;
10605;SDS011;5350;42.698;23.148;2023-06-10T09:26:54;2.00;;;1.55;;
10605;SDS011;5350;42.698;23.148;2023-06-10T09:29:28;2.95;;;1.95;;
10605;SDS011;5350;42.698;23.148;2023-06-10T09:31:55;2.30;;;2.00;;
10605;SDS011;5350;42.698;23.148;2023-06-10T09:34:24;3.63;;;2.28;;
10605;SDS011;5350;42.698;23.148;2023-06-10T09:36:53;3.05;;;2.25;;
10605;SDS011;5350;42.698;23.148;2023-06-10T09:39:20;2.45;;;2.25;;
10605;SDS011;5350;42.698;23.148;2023-06-10T09:41:47;3.00;;;2.20;;
10605;SDS011;5350;42.698;23.148;2023-06-10T09:44:14;2.20;;;2.10;;
10605;SDS011;5350;42.698;23.148;2023-06-10T09:46:42;6.82;;;2.35;;
10605;SDS011;5350;42.698;23.148;2023-06-10T09:49:11;3.10;;;2.60;;
10605;SDS011;5350;42.698;23.148;2023-06-10T09:51:38;2.20;;;2.00;;
10605;SDS011;5350;42.698;23.148;2023-06-10T09:54:16;2.55;;;2.08;;
10605;SDS011;5350;42.698;23.148;2023-06-10T09:56:44;7.35;;;3.22;;
10605;SDS011;5350;42.698;23.148;2023-06-10T09:59:14;4.07;;;2.15;;
10605;SDS011;5350;42.698;23.148;2023-06-10T10:01:41;4.70;;;2.42;;
10605;SDS011;5350;42.698;23.148;2023-06-10T10:04:07;3.83;;;2.00;;
10605;SDS011;5350;42.698;23.148;2023-06-10T10:06:34;3.10;;;2.22;;
10605;SDS011;5350;42.698;23.148;2023-06-10T10:09:02;3.55;;;2.40;;
10605;SDS011;5350;42.698;23.148;2023-06-10T10:11:31;2.30;;;2.10;;
10605;SDS011;5350;42.698;23.148;2023-06-10T10:14:00;3.13;;;2.42;;
10605;SDS011;5350;42.698;23.148;2023-06-10T10:16:33;2.50;;;2.30;;
10605;SDS011;5350;42.698;23.148;2023-06-10T10:19:04;2.38;;;2.10;;
10605;SDS011;5350;42.698;23.148;2023-06-10T10:21:35;2.90;;;2.70;;
10605;SDS011;5350;42.698;23.148;2023-06-10T10:24:08;2.67;;;2.47;;
10605;SDS011;5350;42.698;23.148;2023-06-10T10:26:40;2.53;;;2.33;;
10605;SDS011;5350;42.698;23.148;2023-06-10T10:29:11;3.10;;;2.55;;
10605;SDS011;5350;42.698;23.148;2023-06-10T10:31:42;3.25;;;2.22;;
10605;SDS011;5350;42.698;23.148;2023-06-10T10:34:12;2.67;;;2.22;;
10605;SDS011;5350;42.698;23.148;2023-06-10T10:36:42;3.42;;;2.20;;
10605;SDS011;5350;42.698;23.148;2023-06-10T10:39:10;2.60;;;2.40;;
10605;SDS011;5350;42.698;23.148;2023-06-10T10:41:37;2.78;;;2.00;;
10605;SDS011;5350;42.698;23.148;2023-06-10T10:44:06;3.15;;;2.10;;
10605;SDS011;5350;42.698;23.148;2023-06-10T10:46:41;2.83;;;2.17;;
10605;SDS011;5350;42.698;23.148;2023-06-10T10:49:09;2.25;;;2.05;;
10605;SDS011;5350;42.698;23.148;2023-06-10T10:51:38;1.98;;;1.88;;
10605;SDS011;5350;42.698;23.148;2023-06-10T10:54:21;5.47;;;2.10;;
10605;SDS011;5350;42.698;23.148;2023-06-10T10:57:15;11.77;;;2.97;;
10605;SDS011;5350;42.698;23.148;2023-06-10T10:59:44;2.70;;;2.50;;
10605;SDS011;5350;42.698;23.148;2023-06-10T11:02:31;3.10;;;2.47;;
10605;SDS011;5350;42.698;23.148;2023-06-10T11:05:04;2.10;;;2.00;;
10605;SDS011;5350;42.698;23.148;2023-06-10T11:07:32;2.60;;;2.40;;
10605;SDS011;5350;42.698;23.148;2023-06-10T11:09:59;2.92;;;2.63;;
10605;SDS011;5350;42.698;23.148;2023-06-10T11:12:40;2.30;;;2.10;;
10605;SDS011;5350;42.698;23.148;2023-06-10T11:15:18;5.10;;;2.20;;
10605;SDS011;5350;42.698;23.148;2023-06-10T11:20:52;2.55;;;2.17;;
10605;SDS011;5350;42.698;23.148;2023-06-10T11:23:31;2.97;;;2.15;;
10605;SDS011;5350;42.698;23.148;2023-06-10T11:26:11;3.55;;;2.30;;
10605;SDS011;5350;42.698;23.148;2023-06-10T11:31:29;2.60;;;2.40;;
10605;SDS011;5350;42.698;23.148;2023-06-10T11:33:58;2.53;;;2.22;;
10605;SDS011;5350;42.698;23.148;2023-06-10T11:36:26;4.63;;;2.13;;
10605;SDS011;5350;42.698;23.148;2023-06-10T11:38:55;3.33;;;2.25;;
10605;SDS011;5350;42.698;23.148;2023-06-10T11:41:23;2.38;;;2.17;;
10605;SDS011;5350;42.698;23.148;2023-06-10T11:43:50;2.58;;;1.88;;
10605;SDS011;5350;42.698;23.148;2023-06-10T11:46:18;2.25;;;2.15;;
10605;SDS011;5350;42.698;23.148;2023-06-10T11:48:48;3.90;;;2.05;;
10605;SDS011;5350;42.698;23.148;2023-06-10T11:51:15;4.50;;;2.42;;
10605;SDS011;5350;42.698;23.148;2023-06-10T11:53:43;4.40;;;2.50;;
10605;SDS011;5350;42.698;23.148;2023-06-10T11:56:10;1.95;;;1.85;;
10605;SDS011;5350;42.698;23.148;2023-06-10T11:58:37;2.28;;;2.00;;
10605;SDS011;5350;42.698;23.148;2023-06-10T12:01:09;11.20;;;2.78;;
10605;SDS011;5350;42.698;23.148;2023-06-10T12:03:38;2.38;;;1.60;;
10605;SDS011;5350;42.698;23.148;2023-06-10T12:06:05;2.58;;;2.38;;
10605;SDS011;5350;42.698;23.148;2023-06-10T12:08:32;2.20;;;2.10;;
10605;SDS011;5350;42.698;23.148;2023-06-10T12:10:59;3.55;;;2.40;;
10605;SDS011;5350;42.698;23.148;2023-06-10T12:13:26;5.05;;;2.38;;
10605;SDS011;5350;42.698;23.148;2023-06-10T12:15:54;2.55;;;2.30;;
10605;SDS011;5350;42.698;23.148;2023-06-10T12:18:21;3.83;;;2.30;;
10605;SDS011;5350;42.698;23.148;2023-06-10T12:20:50;3.70;;;2.50;;
10605;SDS011;5350;42.698;23.148;2023-06-10T12:23:17;2.45;;;2.25;;
10605;SDS011;5350;42.698;23.148;2023-06-10T12:25:51;4.22;;;2.60;;
10605;SDS011;5350;42.698;23.148;2023-06-10T12:28:20;3.85;;;2.90;;
10605;SDS011;5350;42.698;23.148;2023-06-10T12:30:48;3.78;;;2.63;;
10605;SDS011;5350;42.698;23.148;2023-06-10T12:33:18;3.08;;;2.40;;
10605;SDS011;5350;42.698;23.148;2023-06-10T12:35:48;3.03;;;2.30;;
10605;SDS011;5350;42.698;23.148;2023-06-10T12:38:22;5.22;;;2.58;;
10605;SDS011;5350;42.698;23.148;2023-06-10T12:40:52;4.05;;;2.30;;
10605;SDS011;5350;42.698;23.148;2023-06-10T12:43:22;4.35;;;2.30;;
10605;SDS011;5350;42.698;23.148;2023-06-10T12:45:49;5.85;;;2.53;;
10605;SDS011;5350;42.698;23.148;2023-06-10T12:48:19;4.63;;;3.15;;
10605;SDS011;5350;42.698;23.148;2023-06-10T12:50:50;4.07;;;2.85;;
10605;SDS011;5350;42.698;23.148;2023-06-10T12:53:18;6.82;;;2.80;;
10605;SDS011;5350;42.698;23.148;2023-06-10T12:55:47;4.47;;;2.70;;
10605;SDS011;5350;42.698;23.148;2023-06-10T12:58:14;4.75;;;2.63;;
10605;SDS011;5350;42.698;23.148;2023-06-10T13:00:41;3.22;;;2.80;;
10605;SDS011;5350;42.698;23.148;2023-06-10T13:03:08;5.47;;;3.45;;
10605;SDS011;5350;42.698;23.148;2023-06-10T13:05:36;2.38;;;2.17;;
10605;SDS011;5350;42.698;23.148;2023-06-10T13:08:04;9.10;;;3.83;;
10605;SDS011;5350;42.698;23.148;2023-06-10T13:10:31;5.75;;;3.38;;
10605;SDS011;5350;42.698;23.148;2023-06-10T13:12:59;3.78;;;3.40;;
10605;SDS011;5350;42.698;23.148;2023-06-10T13:15:26;3.85;;;3.15;;
10605;SDS011;5350;42.698;23.148;2023-06-10T13:17:53;3.50;;;3.20;;
10605;SDS011;5350;42.698;23.148;2023-06-10T13:20:20;3.92;;;3.53;;
10605;SDS011;5350;42.698;23.148;2023-06-10T13:22:47;4.78;;;3.05;;
10605;SDS011;5350;42.698;23.148;2023-06-10T13:25:14;3.40;;;3.17;;
10605;SDS011;5350;42.698;23.148;2023-06-10T13:27:41;3.13;;;2.83;;
10605;SDS011;5350;42.698;23.148;2023-06-10T13:30:09;6.32;;;3.40;;
10605;SDS011;5350;42.698;23.148;2023-06-10T13:32:37;4.43;;;3.33;;
10605;SDS011;5350;42.698;23.148;2023-06-10T13:35:04;3.63;;;3.33;;
10605;SDS011;5350;42.698;23.148;2023-06-10T13:37:32;3.55;;;3.25;;
10605;SDS011;5350;42.698;23.148;2023-06-10T13:39:59;3.70;;;3.30;;
10605;SDS011;5350;42.698;23.148;2023-06-10T13:42:26;3.65;;;3.30;;
10605;SDS011;5350;42.698;23.148;2023-06-10T13:44:54;4.82;;;3.63;;
10605;SDS011;5350;42.698;23.148;2023-06-10T13:47:23;8.93;;;3.70;;
10605;SDS011;5350;42.698;23.148;2023-06-10T13:49:50;3.95;;;3.55;;
10605;SDS011;5350;42.698;23.148;2023-06-10T13:52:17;4.90;;;3.78;;
10605;SDS011;5350;42.698;23.148;2023-06-10T13:54:44;4.55;;;3.88;;
10605;SDS011;5350;42.698;23.148;2023-06-10T13:57:10;4.68;;;3.83;;
10605;SDS011;5350;42.698;23.148;2023-06-10T13:59:37;3.92;;;3.63;;
10605;SDS011;5350;42.698;23.148;2023-06-10T14:02:04;3.78;;;3.35;;
10605;SDS011;5350;42.698;23.148;2023-06-10T14:04:32;4.03;;;3.72;;
10605;SDS011;5350;42.698;23.148;2023-06-10T14:06:59;3.72;;;3.42;;
10605;SDS011;5350;42.698;23.148;2023-06-10T14:09:25;4.13;;;3.33;;
10605;SDS011;5350;42.698;23.148;2023-06-10T14:11:52;3.70;;;3.20;;
10605;SDS011;5350;42.698;23.148;2023-06-10T14:14:19;3.55;;;2.78;;
10605;SDS011;5350;42.698;23.148;2023-06-10T14:16:46;3.78;;;3.47;;
10605;SDS011;5350;42.698;23.148;2023-06-10T14:19:12;4.90;;;3.22;;
10605;SDS011;5350;42.698;23.148;2023-06-10T14:21:42;3.88;;;3.47;;
10605;SDS011;5350;42.698;23.148;2023-06-10T14:24:09;3.72;;;2.65;;
10605;SDS011;5350;42.698;23.148;2023-06-10T14:26:35;4.50;;;3.83;;
10605;SDS011;5350;42.698;23.148;2023-06-10T14:29:02;2.58;;;2.38;;
10605;SDS011;5350;42.698;23.148;2023-06-10T14:31:29;3.72;;;2.60;;
10605;SDS011;5350;42.698;23.148;2023-06-10T14:33:55;2.78;;;2.58;;
10605;SDS011;5350;42.698;23.148;2023-06-10T14:36:22;2.75;;;2.55;;
10605;SDS011;5350;42.698;23.148;2023-06-10T14:38:50;2.40;;;2.30;;
10605;SDS011;5350;42.698;23.148;2023-06-10T14:41:17;2.28;;;2.17;;
10605;SDS011;5350;42.698;23.148;2023-06-10T14:43:44;2.80;;;2.60;;
10605;SDS011;5350;42.698;23.148;2023-06-10T14:46:10;2.90;;;2.42;;
10605;SDS011;5350;42.698;23.148;2023-06-10T14:48:37;3.13;;;2.35;;
10605;SDS011;5350;42.698;23.148;2023-06-10T14:51:03;3.08;;;2.40;;
10605;SDS011;5350;42.698;23.148;2023-06-10T14:53:30;2.58;;;2.38;;
10605;SDS011;5350;42.698;23.148;2023-06-10T14:55:58;4.68;;;2.72;;
10605;SDS011;5350;42.698;23.148;2023-06-10T14:58:25;2.47;;;2.25;;